createdAt,value
2022-10-10T00:00:09.213Z,95024.78
2022-10-10T00:02:36.876Z,95024.78
2022-10-10T00:05:06.831Z,95031.66
2022-10-10T00:07:34.542Z,95022.72
2022-10-10T00:10:02.475Z,95023.78
2022-10-10T00:12:30.118Z,95021.56
2022-10-10T00:14:57.809Z,95021.47
2022-10-10T00:17:25.496Z,95020.91
2022-10-10T00:19:53.322Z,95021.47
2022-10-10T00:22:22.367Z,95025.31
2022-10-10T00:24:50.175Z,95026.28
2022-10-10T00:27:17.832Z,95018.59
2022-10-10T00:29:45.516Z,95018.59
2022-10-10T00:32:13.146Z,95015.31
2022-10-10T00:34:40.869Z,95015.56
2022-10-10T00:37:08.491Z,95021.31
2022-10-10T00:39:37.537Z,95017.53
2022-10-10T00:42:05.584Z,95023.56
2022-10-10T00:44:33.291Z,95015.38
2022-10-10T00:47:00.933Z,95017.03
2022-10-10T00:49:30.232Z,95011.00
2022-10-10T00:51:59.569Z,95015.97
2022-10-10T00:54:29.157Z,95017.63
2022-10-10T00:57:00.539Z,95018.19
2022-10-10T00:59:29.206Z,95018.19
2022-10-10T01:01:56.882Z,95020.66
2022-10-10T01:04:36.230Z,95010.81
2022-10-10T01:07:06.184Z,95014.41
2022-10-10T01:09:34.729Z,95013.31
2022-10-10T01:12:15.484Z,95015.22
2022-10-10T01:14:48.015Z,95011.94
2022-10-10T01:17:21.329Z,95006.97
2022-10-10T01:20:22.490Z,95004.97
2022-10-10T01:23:02.741Z,95008.75
2022-10-10T01:25:33.312Z,95001.44
2022-10-10T01:28:04.662Z,94997.06
2022-10-10T01:30:35.821Z,95006.03
2022-10-10T01:33:07.952Z,95001.13
2022-10-10T01:35:43.580Z,95007.63
2022-10-10T01:38:18.534Z,95005.47
2022-10-10T01:40:50.340Z,95015.31
2022-10-10T01:43:18.234Z,95013.63
2022-10-10T01:45:48.914Z,95008.13
2022-10-10T01:48:17.028Z,95004.81
2022-10-10T01:50:57.203Z,95010.28
2022-10-10T01:53:28.530Z,95003.31
2022-10-10T01:56:01.302Z,95000.34
2022-10-10T01:58:47.798Z,95006.66
2022-10-10T02:01:19.544Z,95000.34
2022-10-10T02:03:51.559Z,95010.75
2022-10-10T02:06:23.430Z,95004.97
2022-10-10T02:08:55.385Z,95008.44
2022-10-10T02:11:24.104Z,94995.31
2022-10-10T02:13:56.832Z,94998.03
2022-10-10T02:16:29.099Z,95000.19
2022-10-10T02:18:56.634Z,94997.13
2022-10-10T02:21:24.915Z,95004.81
2022-10-10T02:23:54.696Z,95000.69
2022-10-10T02:26:23.085Z,94996.91
2022-10-10T02:28:54.336Z,94998.53
2022-10-10T02:31:29.117Z,95006.22
2022-10-10T02:33:59.144Z,94997.22
2022-10-10T02:36:28.080Z,94993.09
2022-10-10T02:38:57.037Z,94996.66
2022-10-10T02:41:25.983Z,94991.94
2022-10-10T02:43:53.948Z,94991.13
2022-10-10T02:46:21.963Z,94986.50
2022-10-10T02:48:51.053Z,94985.69
2022-10-10T02:51:18.770Z,94988.06
2022-10-10T02:53:46.556Z,94998.34
2022-10-10T02:56:14.228Z,94995.22
2022-10-10T02:58:41.868Z,94993.22
2022-10-10T03:01:10.499Z,94981.19
2022-10-10T03:03:38.214Z,94983.69
2022-10-10T03:06:07.931Z,94981.75
2022-10-10T03:08:37.904Z,94984.50
2022-10-10T03:11:05.934Z,94992.25
2022-10-10T03:13:33.921Z,94987.53
2022-10-10T03:16:02.175Z,94983.97
2022-10-10T03:18:29.896Z,94979.34
2022-10-10T03:20:57.694Z,94983.16
2022-10-10T03:23:27.044Z,94980.44
2022-10-10T03:25:54.920Z,94990.38
2022-10-10T03:28:23.130Z,94984.44
2022-10-10T03:30:50.946Z,94988.22
2022-10-10T03:33:18.648Z,94992.84
2022-10-10T03:35:46.410Z,94987.41
2022-10-10T03:38:14.950Z,94992.25
2022-10-10T03:40:45.486Z,94982.69
2022-10-10T03:43:14.686Z,94983.28
2022-10-10T03:45:43.876Z,94983.00
2022-10-10T03:48:11.911Z,94993.09
2022-10-10T03:50:39.838Z,94991.69
2022-10-10T03:53:07.766Z,94987.47
2022-10-10T03:55:35.541Z,94991.00
2022-10-10T03:58:04.521Z,94986.56
2022-10-10T04:00:32.262Z,94987.84
2022-10-10T04:03:00.798Z,94989.59
2022-10-10T04:05:28.498Z,94988.56
2022-10-10T04:07:56.225Z,94985.84
2022-10-10T04:10:23.894Z,94988.22
2022-10-10T04:12:52.075Z,94992.63
2022-10-10T04:15:21.270Z,94980.41
2022-10-10T04:17:49.415Z,94990.03
2022-10-10T04:20:18.043Z,94985.66
2022-10-10T04:22:45.789Z,94979.16
2022-10-10T04:25:13.570Z,94980.78
2022-10-10T04:27:41.255Z,94986.63
2022-10-10T04:30:09.719Z,94989.97
2022-10-10T04:32:41.865Z,94983.69
2022-10-10T04:35:10.145Z,94975.41
2022-10-10T04:37:37.948Z,94975.25
2022-10-10T04:40:06.266Z,94983.66
2022-10-10T04:42:33.948Z,94985.31
2022-10-10T04:45:01.841Z,94982.84
2022-10-10T04:47:29.535Z,94983.88
2022-10-10T04:49:58.566Z,94980.34
2022-10-10T04:52:26.364Z,94985.22
2022-10-10T04:54:54.129Z,94987.47
2022-10-10T04:57:21.916Z,94988.84
2022-10-10T04:59:49.679Z,94991.22
2022-10-10T05:02:17.389Z,94992.56
2022-10-10T05:04:45.039Z,94992.56
2022-10-10T05:07:14.113Z,94994.19
2022-10-10T05:09:41.800Z,94996.66
2022-10-10T05:12:09.528Z,94996.09
2022-10-10T05:14:37.635Z,95000.13
2022-10-10T05:17:05.535Z,95001.66
2022-10-10T05:19:33.297Z,94990.78
2022-10-10T05:22:01.446Z,94993.19
2022-10-10T05:24:30.497Z,94999.44
2022-10-10T05:26:58.198Z,94995.31
2022-10-10T05:29:25.929Z,94996.72
2022-10-10T05:31:53.647Z,94988.31
2022-10-10T05:34:21.392Z,94984.53
2022-10-10T05:36:49.126Z,94990.56
2022-10-10T05:39:16.872Z,95001.19
2022-10-10T05:41:45.924Z,95007.81
2022-10-10T05:44:13.599Z,94999.91
2022-10-10T05:46:41.268Z,95003.19
2022-10-10T05:49:08.925Z,95004.88
2022-10-10T05:51:36.677Z,95006.88
2022-10-10T05:54:05.231Z,95008.50
2022-10-10T05:56:33.109Z,95003.91
2022-10-10T05:59:02.168Z,95000.63
2022-10-10T06:01:29.848Z,95003.06
2022-10-10T06:03:57.499Z,95001.78
2022-10-10T06:06:26.312Z,95002.34
2022-10-10T06:08:54.457Z,95007.22
2022-10-10T06:11:23.579Z,95010.75
2022-10-10T06:13:54.257Z,95010.84
2022-10-10T06:16:24.118Z,95007.88
2022-10-10T06:18:52.010Z,95010.38
2022-10-10T06:21:20.182Z,95003.63
2022-10-10T06:23:47.929Z,95015.56
2022-10-10T06:26:16.274Z,95017.34
2022-10-10T06:28:44.045Z,95023.34
2022-10-10T06:31:13.481Z,95023.94
2022-10-10T06:33:45.485Z,95026.66
2022-10-10T06:36:14.557Z,95029.72
2022-10-10T06:38:43.704Z,95026.50
2022-10-10T06:41:11.790Z,95026.59
2022-10-10T06:43:41.196Z,95034.53
2022-10-10T06:46:09.638Z,95037.34
2022-10-10T06:48:37.370Z,95032.28
2022-10-10T06:51:08.274Z,95020.19
2022-10-10T06:53:36.185Z,95036.84
2022-10-10T06:56:04.161Z,95033.63
2022-10-10T06:58:32.521Z,95035.16
2022-10-10T07:01:01.587Z,95042.06
2022-10-10T07:03:30.288Z,95043.00
2022-10-10T07:05:59.127Z,95037.66
2022-10-10T07:08:29.023Z,95047.22
2022-10-10T07:10:56.982Z,95047.31
2022-10-10T07:13:24.744Z,95053.13
2022-10-10T07:15:53.391Z,95052.09
2022-10-10T07:18:21.538Z,95056.50
2022-10-10T07:20:49.591Z,95058.81
2022-10-10T07:23:17.364Z,95061.38
2022-10-10T07:25:46.475Z,95054.66
2022-10-10T07:28:14.263Z,95066.41
2022-10-10T07:30:43.652Z,95062.09
2022-10-10T07:33:11.494Z,95070.63
2022-10-10T07:35:39.182Z,95072.34
2022-10-10T07:38:06.849Z,95068.66
2022-10-10T07:40:34.591Z,95078.22
2022-10-10T07:43:03.622Z,95082.84
2022-10-10T07:45:31.301Z,95087.31
2022-10-10T07:47:58.909Z,95083.06
2022-10-10T07:50:26.578Z,95081.53
2022-10-10T07:52:54.272Z,95084.97
2022-10-10T07:55:21.897Z,95087.50
2022-10-10T07:57:53.447Z,95093.84
2022-10-10T08:00:22.748Z,95091.47
2022-10-10T08:02:52.116Z,95097.50
2022-10-10T08:05:19.748Z,95097.06
2022-10-10T08:07:47.428Z,95092.84
2022-10-10T08:10:15.172Z,95098.19
2022-10-10T08:12:42.862Z,95100.41
2022-10-10T08:17:40.962Z,95096.25
2022-10-10T08:20:09.036Z,95105.69
2022-10-10T08:22:36.654Z,95106.31
2022-10-10T08:25:04.450Z,95112.84
2022-10-10T08:27:32.139Z,95122.25
2022-10-10T08:29:59.760Z,95120.47
2022-10-10T08:32:27.378Z,95114.34
2022-10-10T08:34:56.440Z,95118.00
2022-10-10T08:37:30.284Z,95114.03
2022-10-10T08:40:00.361Z,95116.09
2022-10-10T08:42:31.615Z,95123.56
2022-10-10T08:45:04.111Z,95121.50
2022-10-10T08:47:38.012Z,95118.53
2022-10-10T08:50:15.930Z,95126.00
2022-10-10T08:52:47.987Z,95124.47
2022-10-10T08:55:18.720Z,95124.25
2022-10-10T08:57:50.950Z,95127.63
2022-10-10T09:00:19.638Z,95121.97
2022-10-10T09:02:53.955Z,95126.72
2022-10-10T09:05:32.020Z,95128.69
2022-10-10T09:08:09.240Z,95132.06
2022-10-10T09:10:41.566Z,95128.81
2022-10-10T09:13:18.671Z,95127.22
2022-10-10T09:15:51.877Z,95128.34
2022-10-10T09:18:29.899Z,95127.84
2022-10-10T09:21:04.871Z,95131.69
2022-10-10T09:23:36.940Z,95125.69
2022-10-10T09:26:11.092Z,95124.06
2022-10-10T09:28:41.536Z,95128.47
2022-10-10T09:31:13.817Z,95134.50
2022-10-10T09:33:42.610Z,95136.41
2022-10-10T09:36:16.069Z,95133.09
2022-10-10T09:38:48.430Z,95134.97
2022-10-10T09:41:18.724Z,95134.91
2022-10-10T09:43:46.348Z,95132.63
2022-10-10T09:46:13.980Z,95132.31
2022-10-10T09:48:43.054Z,95138.31
2022-10-10T09:51:15.863Z,95137.78
2022-10-10T09:53:44.702Z,95140.75
2022-10-10T09:56:17.344Z,95138.78
2022-10-10T09:58:46.573Z,95139.81
2022-10-10T10:01:16.979Z,95137.88
2022-10-10T10:03:45.745Z,95133.66
2022-10-10T10:06:16.059Z,95136.78
2022-10-10T10:08:47.939Z,95131.13
2022-10-10T10:11:27.177Z,95132.53
2022-10-10T10:13:56.527Z,95131.50
2022-10-10T10:16:32.325Z,95133.69
2022-10-10T10:19:00.021Z,95137.22
2022-10-10T10:21:29.154Z,95133.13
2022-10-10T10:23:59.326Z,95134.78
2022-10-10T10:26:29.790Z,95133.63
2022-10-10T10:28:58.876Z,95144.75
2022-10-10T10:31:44.584Z,95135.13
2022-10-10T10:34:27.605Z,95130.75
2022-10-10T10:37:03.015Z,95142.75
2022-10-10T10:39:40.782Z,95138.84
2022-10-10T10:42:16.305Z,95133.09
2022-10-10T10:44:48.243Z,95143.69
2022-10-10T10:47:27.339Z,95139.56
2022-10-10T10:50:04.773Z,95138.00
2022-10-10T10:52:48.589Z,95140.63
2022-10-10T10:55:23.690Z,95137.78
2022-10-10T10:58:37.122Z,95144.59
2022-10-10T11:01:23.640Z,95136.06
2022-10-10T11:05:15.757Z,95136.72
2022-10-10T11:07:17.970Z,95126.06
2022-10-10T11:09:54.897Z,95125.81
2022-10-10T11:12:44.919Z,95128.94
2022-10-10T11:15:16.953Z,95115.81
2022-10-10T11:17:48.103Z,95107.13
2022-10-10T11:20:21.959Z,95114.19
2022-10-10T11:22:52.541Z,95116.47
2022-10-10T11:25:24.341Z,95112.25
2022-10-10T11:27:55.073Z,95120.56
2022-10-10T11:30:24.298Z,95113.09
2022-10-10T11:32:55.671Z,95105.34
2022-10-10T11:35:28.653Z,95114.91
2022-10-10T11:38:00.454Z,95111.00
2022-10-10T11:40:46.372Z,95108.38
2022-10-10T11:43:26.235Z,95120.06
2022-10-10T11:46:02.800Z,95108.59
2022-10-10T11:48:37.721Z,95114.53
2022-10-10T11:51:17.817Z,95106.44
2022-10-10T11:53:47.146Z,95113.72
2022-10-10T11:56:20.537Z,95116.59
2022-10-10T11:58:51.246Z,95114.00
2022-10-10T12:01:23.234Z,95114.53
2022-10-10T12:03:51.641Z,95113.22
2022-10-10T12:06:23.540Z,95107.38
2022-10-10T12:08:55.611Z,95110.66
2022-10-10T12:11:26.235Z,95111.09
2022-10-10T12:13:55.988Z,95108.44
2022-10-10T12:16:30.200Z,95110.16
2022-10-10T12:19:02.692Z,95107.69
2022-10-10T12:21:30.487Z,95110.25
2022-10-10T12:24:04.561Z,95107.19
2022-10-10T12:27:26.110Z,95108.28
2022-10-10T12:30:17.401Z,95106.47
2022-10-10T12:32:46.148Z,95109.22
2022-10-10T12:35:30.938Z,95098.88
2022-10-10T12:38:19.769Z,95111.22
2022-10-10T12:41:13.142Z,95106.00
2022-10-10T12:43:44.190Z,95101.66
2022-10-10T12:46:30.973Z,95091.19
2022-10-10T12:49:01.851Z,95100.19
2022-10-10T12:51:31.130Z,95095.19
2022-10-10T12:54:00.616Z,95098.47
2022-10-10T12:56:39.886Z,95095.72
2022-10-10T12:59:14.953Z,95102.34
2022-10-10T13:01:48.540Z,95101.56
2022-10-10T13:04:17.298Z,95099.28
2022-10-10T13:06:45.518Z,95095.28
2022-10-10T13:09:31.151Z,95103.50
2022-10-10T13:12:03.052Z,95101.56
2022-10-10T13:14:39.513Z,95103.28
2022-10-10T13:17:22.738Z,95102.47
2022-10-10T13:19:50.962Z,95097.19
2022-10-10T13:22:18.767Z,95096.53
2022-10-10T13:24:48.555Z,95097.03
2022-10-10T13:27:17.686Z,95096.97
2022-10-10T13:29:45.668Z,95092.59
2022-10-10T13:32:16.396Z,95090.81
2022-10-10T13:34:49.839Z,95085.59
2022-10-10T13:37:18.578Z,95095.38
2022-10-10T13:39:46.828Z,95090.84
2022-10-10T13:42:27.938Z,95089.94
2022-10-10T13:44:59.198Z,95093.41
2022-10-10T13:47:47.994Z,95095.06
2022-10-10T13:50:26.847Z,95101.00
2022-10-10T13:53:31.502Z,95102.00
2022-10-10T13:56:01.368Z,95103.47
2022-10-10T13:58:29.741Z,95100.69
2022-10-10T14:00:58.411Z,95097.34
2022-10-10T14:03:26.469Z,95098.53
2022-10-10T14:05:55.598Z,95102.50
2022-10-10T14:08:27.540Z,95100.19
2022-10-10T14:11:00.980Z,95101.31
2022-10-10T14:13:30.185Z,95101.59
2022-10-10T14:16:11.473Z,95096.66
2022-10-10T14:18:39.257Z,95101.19
2022-10-10T14:21:09.479Z,95098.72
2022-10-10T14:23:37.684Z,95100.88
2022-10-10T14:26:07.858Z,95106.63
2022-10-10T14:28:38.688Z,95106.84
2022-10-10T14:31:06.767Z,95101.91
2022-10-10T14:33:34.984Z,95104.78
2022-10-10T14:36:02.747Z,95108.69
2022-10-10T14:38:31.855Z,95110.00
2022-10-10T14:41:00.890Z,95117.78
2022-10-10T14:43:28.857Z,95106.91
2022-10-10T14:45:56.478Z,95117.44
2022-10-10T14:48:24.212Z,95114.53
2022-10-10T14:50:52.320Z,95113.72
2022-10-10T14:53:20.222Z,95118.13
2022-10-10T14:55:53.819Z,95113.44
2022-10-10T14:58:23.862Z,95119.84
2022-10-10T15:00:52.922Z,95119.03
2022-10-10T15:03:20.616Z,95112.69
2022-10-10T15:05:48.779Z,95112.16
2022-10-10T15:08:18.216Z,95115.31
2022-10-10T15:10:46.328Z,95115.97
2022-10-10T15:13:16.077Z,95117.09
2022-10-10T15:15:43.676Z,95107.97
2022-10-10T15:18:33.322Z,95108.06
2022-10-10T15:20:59.182Z,95121.06
2022-10-10T15:23:27.202Z,95118.38
2022-10-10T15:25:54.954Z,95111.44
2022-10-10T15:28:24.046Z,95116.53
2022-10-10T15:30:52.706Z,95116.00
2022-10-10T15:33:20.401Z,95119.44
2022-10-10T15:36:08.477Z,95113.38
2022-10-10T15:38:36.635Z,95120.09
2022-10-10T15:41:07.086Z,95121.00
2022-10-10T15:43:44.372Z,95118.88
2022-10-10T15:46:12.122Z,95118.88
2022-10-10T15:48:39.759Z,95117.59
2022-10-10T15:51:08.634Z,95122.66
2022-10-10T15:53:37.144Z,95126.56
2022-10-10T15:56:10.138Z,95135.34
2022-10-10T15:58:40.400Z,95125.13
2022-10-10T16:01:13.059Z,95134.38
2022-10-10T16:03:40.784Z,95139.28
2022-10-10T16:06:09.363Z,95131.34
2022-10-10T16:08:37.714Z,95133.03
2022-10-10T16:11:07.112Z,95134.81
2022-10-10T16:13:36.071Z,95141.47
2022-10-10T16:16:06.942Z,95124.66
2022-10-10T16:18:40.027Z,95122.75
2022-10-10T16:21:08.924Z,95131.91
2022-10-10T16:23:37.025Z,95135.50
2022-10-10T16:26:05.812Z,95130.00
2022-10-10T16:28:33.841Z,95146.56
2022-10-10T16:31:03.246Z,95139.28
2022-10-10T16:33:35.216Z,95146.50
2022-10-10T16:36:04.009Z,95153.75
2022-10-10T16:38:31.670Z,95149.75
2022-10-10T16:41:02.928Z,95158.03
2022-10-10T16:43:30.834Z,95158.84
2022-10-10T16:46:01.925Z,95155.38
2022-10-10T16:48:29.654Z,95165.31
2022-10-10T16:51:02.254Z,95170.06
2022-10-10T16:53:30.453Z,95170.38
2022-10-10T16:55:59.261Z,95176.19
2022-10-10T16:58:26.967Z,61859.69
2022-10-10T17:00:54.867Z,61859.69
2022-10-10T17:03:22.736Z,61859.69
2022-10-10T17:05:50.328Z,61859.69
2022-10-10T17:08:19.305Z,61859.69
2022-10-10T17:10:46.910Z,61859.69
2022-10-10T17:13:14.528Z,61859.69
2022-10-10T17:15:43.027Z,61859.69
2022-10-10T17:18:10.676Z,61859.69
2022-10-10T17:20:42.073Z,61859.69
2022-10-10T17:23:09.757Z,61859.69
2022-10-10T17:25:42.860Z,61859.69
2022-10-10T17:28:10.699Z,61859.69
2022-10-10T17:30:43.098Z,61859.69
2022-10-10T17:33:11.730Z,61859.69
2022-10-10T17:35:41.762Z,61859.69
2022-10-10T17:38:21.585Z,61859.69
2022-10-10T17:41:01.456Z,61859.69
2022-10-10T17:43:29.537Z,61859.69
2022-10-10T17:46:15.474Z,61859.69
2022-10-10T17:48:49.013Z,61859.69
2022-10-10T17:51:22.234Z,61859.69
2022-10-10T17:53:50.656Z,61859.69
2022-10-10T17:56:21.448Z,61859.69
2022-10-10T17:58:50.207Z,61859.69
2022-10-10T18:01:19.184Z,61859.69
2022-10-10T18:03:47.257Z,61859.69
2022-10-10T18:06:17.073Z,61859.69
2022-10-10T18:08:44.758Z,61859.69
2022-10-10T18:11:13.760Z,61859.69
2022-10-10T18:13:43.379Z,61859.69
2022-10-10T18:16:12.758Z,61859.69
2022-10-10T18:18:41.138Z,61859.69
2022-10-10T18:21:10.667Z,61859.69
2022-10-10T18:23:38.581Z,61859.69
2022-10-10T18:26:08.305Z,61859.69
2022-10-10T18:28:39.005Z,61859.69
2022-10-10T18:31:13.262Z,61859.69
2022-10-10T18:33:41.983Z,61859.69
2022-10-10T18:36:11.141Z,61859.69
2022-10-10T18:38:38.925Z,61859.69
2022-10-10T18:41:07.572Z,61859.69
2022-10-10T18:43:35.781Z,61859.69
2022-10-10T18:46:04.452Z,61859.69
2022-10-10T18:48:33.809Z,61859.69
2022-10-10T18:51:02.748Z,61859.69
2022-10-10T18:53:30.983Z,61859.69
2022-10-10T18:56:00.433Z,61859.69
2022-10-10T18:58:28.150Z,61859.69
2022-10-10T19:00:59.619Z,61859.69
2022-10-10T19:03:27.323Z,61859.69
2022-10-10T19:05:56.358Z,61859.69
2022-10-10T19:08:24.033Z,61859.69
2022-10-10T19:10:52.247Z,61859.69
2022-10-10T19:13:20.583Z,61859.69
2022-10-10T19:15:50.369Z,61859.69
2022-10-10T19:18:18.631Z,61859.69
2022-10-10T19:20:46.450Z,61859.69
2022-10-10T19:23:15.756Z,61859.69
2022-10-10T19:25:44.613Z,61859.69
2022-10-10T19:28:12.335Z,61859.69
2022-10-10T19:30:40.349Z,61859.69
2022-10-10T19:33:08.196Z,61859.69
2022-10-10T19:35:40.001Z,61859.69
2022-10-10T19:38:08.887Z,61859.69
2022-10-10T19:40:44.841Z,61859.69
2022-10-10T19:43:12.645Z,61859.69
2022-10-10T19:45:41.342Z,61859.69
2022-10-10T19:48:09.067Z,61859.69
2022-10-10T19:50:39.743Z,61859.69
2022-10-10T19:53:08.082Z,61859.69
2022-10-10T19:55:35.744Z,61859.69
2022-10-10T19:58:04.813Z,61859.69
2022-10-10T20:00:32.693Z,61859.69
2022-10-10T20:03:00.382Z,61859.69
2022-10-10T20:05:28.138Z,61859.69
2022-10-10T20:07:55.792Z,61859.69
2022-10-10T20:10:23.468Z,61859.69
2022-10-10T20:12:51.142Z,61859.69
2022-10-10T20:15:20.149Z,61859.69
2022-10-10T20:17:47.877Z,61859.69
2022-10-10T20:20:15.552Z,61859.69
2022-10-10T20:22:44.570Z,61859.69
2022-10-10T20:25:12.481Z,61859.69
2022-10-10T20:27:40.243Z,61859.69
2022-10-10T20:30:08.924Z,61859.69
2022-10-10T20:32:37.956Z,61859.69
2022-10-10T20:35:06.309Z,61859.69
2022-10-10T20:37:35.438Z,61859.69
2022-10-10T20:40:03.101Z,61859.69
2022-10-10T20:42:30.741Z,61859.69
2022-10-10T20:44:58.433Z,61859.69
2022-10-10T20:47:26.079Z,61859.69
2022-10-10T20:49:55.090Z,61859.69
2022-10-10T20:52:22.741Z,61859.69
2022-10-10T20:54:50.352Z,61859.69
2022-10-10T20:57:18.013Z,61859.69
2022-10-10T20:59:45.667Z,61859.69
2022-10-10T21:02:19.283Z,61859.69
2022-10-10T21:04:47.415Z,61859.69
2022-10-10T21:07:16.477Z,61859.69
2022-10-10T21:09:44.103Z,61859.69
2022-10-10T21:12:11.761Z,61859.69
2022-10-10T21:14:39.369Z,61859.69
2022-10-10T21:17:07.017Z,61859.69
2022-10-10T21:19:34.692Z,61859.69
2022-10-10T21:22:02.327Z,61859.69
2022-10-10T21:24:31.345Z,61859.69
2022-10-10T21:26:59.029Z,61859.69
2022-10-10T21:29:26.659Z,61859.69
2022-10-10T21:31:54.273Z,61859.69
2022-10-10T21:34:21.927Z,61859.69
2022-10-10T21:36:49.581Z,61859.69
2022-10-10T21:39:17.360Z,61859.69
2022-10-10T21:41:46.381Z,61859.69
2022-10-10T21:44:15.803Z,61859.69
2022-10-10T21:46:43.463Z,61859.69
2022-10-10T21:49:12.612Z,61859.69
2022-10-10T21:51:42.226Z,61859.69
2022-10-10T21:54:10.322Z,61859.69
2022-10-10T21:56:38.503Z,61859.69
2022-10-10T21:59:07.751Z,61859.69
2022-10-10T22:01:37.428Z,61859.69
2022-10-10T22:04:05.598Z,61859.69
2022-10-10T22:06:33.374Z,61859.69
2022-10-10T22:09:02.804Z,61859.69
2022-10-10T22:11:32.050Z,61859.69
2022-10-10T22:14:02.117Z,61859.69
2022-10-10T22:16:31.247Z,61859.69
2022-10-10T22:18:59.356Z,61859.69
2022-10-10T22:21:30.858Z,61859.69
2022-10-10T22:23:58.897Z,61859.69
2022-10-10T22:26:26.633Z,61859.69
2022-10-10T22:28:54.483Z,61859.69
2022-10-10T22:31:22.202Z,61859.69
2022-10-10T22:33:51.155Z,61859.69
2022-10-10T22:36:18.949Z,61859.69
2022-10-10T22:38:46.629Z,61859.69
2022-10-10T22:41:14.630Z,61859.69
2022-10-10T22:43:42.300Z,61859.69
2022-10-10T22:46:10.031Z,61859.69
2022-10-10T22:48:37.756Z,61859.69
2022-10-10T22:51:07.852Z,61859.69
2022-10-10T22:53:35.936Z,61859.69
2022-10-10T22:56:03.993Z,61859.69
2022-10-10T22:58:33.036Z,61859.69
2022-10-10T23:01:04.491Z,61859.69
2022-10-10T23:03:32.180Z,61859.69
2022-10-10T23:05:59.791Z,61859.69
2022-10-10T23:08:28.963Z,61859.69
2022-10-10T23:10:56.596Z,61859.69
2022-10-10T23:13:24.348Z,61859.69
2022-10-10T23:15:52.113Z,61859.69
2022-10-10T23:18:19.833Z,61859.69
2022-10-10T23:20:47.601Z,61859.69
2022-10-10T23:23:15.631Z,61859.69
2022-10-10T23:25:46.211Z,61859.69
2022-10-10T23:28:15.293Z,61859.69
2022-10-10T23:30:44.418Z,61859.69
2022-10-10T23:33:12.661Z,61859.69
2022-10-10T23:35:40.300Z,61859.69
2022-10-10T23:38:08.375Z,61859.69
2022-10-10T23:40:36.076Z,61859.69
2022-10-10T23:43:05.431Z,61859.69
2022-10-10T23:45:33.025Z,61859.69
2022-10-10T23:48:00.680Z,61859.69
2022-10-10T23:50:28.295Z,61859.69
2022-10-10T23:52:55.921Z,61859.69
2022-10-10T23:55:23.627Z,61859.69
2022-10-10T23:57:51.325Z,61859.69
